createdAt,value
2019-01-11T00:01:56.377Z,40.17
2019-01-11T00:04:26.376Z,39.47
2019-01-11T00:06:56.296Z,40.07
2019-01-11T00:09:26.086Z,39.27
2019-01-11T00:11:56.435Z,41.10
2019-01-11T00:14:26.456Z,41.80
2019-01-11T00:16:56.455Z,41.17
2019-01-11T00:19:26.796Z,43.03
2019-01-11T00:21:56.817Z,39.33
2019-01-11T00:24:27.015Z,41.73
2019-01-11T00:26:57.035Z,39.73
2019-01-11T00:29:27.074Z,40.93
2019-01-11T00:31:56.960Z,42.33
2019-01-11T00:34:26.875Z,42.60
2019-01-11T00:36:56.916Z,41.30
2019-01-11T00:39:27.337Z,40.70
2019-01-11T00:41:57.358Z,39.37
2019-01-11T00:44:27.275Z,40.60
2019-01-11T00:46:57.496Z,42.60
2019-01-11T00:49:27.794Z,38.53
2019-01-11T00:51:57.936Z,41.73
2019-01-11T00:54:27.836Z,39.90
2019-01-11T00:56:57.856Z,39.73
2019-01-11T00:59:27.655Z,40.50
2019-01-11T01:01:57.796Z,41.20
2019-01-11T01:04:27.690Z,41.20
2019-01-11T01:06:58.213Z,42.17
2019-01-11T01:09:28.656Z,44.97
2019-01-11T01:11:58.776Z,37.67
2019-01-11T01:14:28.676Z,42.80
2019-01-11T01:16:58.688Z,41.87
2019-01-11T01:19:28.808Z,40.57
2019-01-11T01:21:58.639Z,41.67
2019-01-11T01:24:28.540Z,42.37
2019-01-11T01:26:59.072Z,41.57
2019-01-11T01:29:28.996Z,41.97
2019-01-11T01:31:59.194Z,41.23
2019-01-11T01:34:29.215Z,38.87
2019-01-11T01:36:59.238Z,40.37
2019-01-11T01:39:29.558Z,41.17
2019-01-11T01:41:59.796Z,42.93
2019-01-11T01:44:29.917Z,43.20
2019-01-11T01:47:00.236Z,41.37
2019-01-11T01:49:30.437Z,42.53
2019-01-11T01:52:01.196Z,42.60
2019-01-11T01:54:30.985Z,43.47
2019-01-11T01:57:01.410Z,43.37
2019-01-11T01:59:31.330Z,39.00
2019-01-11T02:02:01.449Z,43.80
2019-01-11T02:04:31.355Z,43.70
2019-01-11T02:07:01.275Z,41.37
2019-01-11T02:09:31.416Z,40.43
2019-01-11T02:12:01.825Z,42.63
2019-01-11T02:14:31.856Z,43.63
2019-01-11T02:17:01.776Z,43.70
2019-01-11T02:19:33.061Z,43.87
2019-01-11T02:22:03.236Z,45.03
2019-01-11T02:24:33.755Z,41.23
2019-01-11T02:27:03.654Z,45.17
2019-01-11T02:29:33.795Z,42.40
2019-01-11T02:32:03.995Z,41.40
2019-01-11T02:34:34.435Z,38.67
2019-01-11T02:37:04.540Z,40.43
2019-01-11T02:39:34.676Z,40.80
2019-01-11T02:42:04.676Z,42.77
2019-01-11T02:44:34.802Z,42.27
2019-01-11T02:47:04.736Z,46.50
2019-01-11T02:49:39.985Z,45.03
2019-01-11T02:52:07.419Z,40.97
2019-01-11T02:54:37.316Z,40.07
2019-01-11T02:57:07.136Z,41.67
2019-01-11T02:59:37.355Z,41.40
2019-01-11T03:02:07.676Z,41.70
2019-01-11T03:04:37.489Z,39.50
2019-01-11T03:07:07.835Z,41.30
2019-01-11T03:09:37.882Z,40.77
2019-01-11T03:12:07.855Z,40.53
2019-01-11T03:14:37.976Z,41.53
2019-01-11T03:17:07.975Z,40.23
2019-01-11T03:19:38.097Z,42.87
2019-01-11T03:22:08.856Z,40.10
2019-01-11T03:24:39.076Z,40.83
2019-01-11T03:27:09.296Z,41.40
2019-01-11T03:29:39.595Z,41.27
2019-01-11T03:32:09.637Z,42.53
2019-01-11T03:34:52.957Z,41.17
2019-01-11T03:37:22.776Z,41.67
2019-01-11T03:39:52.872Z,48.87
2019-01-11T03:42:23.083Z,39.70
2019-01-11T03:44:53.315Z,41.50
2019-01-11T03:47:23.359Z,43.00
2019-01-11T03:49:55.065Z,43.97
2019-01-11T03:52:25.625Z,41.23
2019-01-11T03:54:55.655Z,41.63
2019-01-11T03:57:25.776Z,40.30
2019-01-11T03:59:55.476Z,43.07
2019-01-11T04:02:26.076Z,43.10
2019-01-11T04:04:56.071Z,41.47
2019-01-11T04:07:26.069Z,42.83
2019-01-11T04:09:56.256Z,40.47
2019-01-11T04:12:26.076Z,44.03
2019-01-11T04:14:56.076Z,42.73
2019-01-11T04:17:25.984Z,48.63
2019-01-11T04:20:01.714Z,43.47
2019-01-11T04:22:29.711Z,44.30
2019-01-11T04:25:16.836Z,43.03
2019-01-11T04:27:47.377Z,41.10
2019-01-11T04:30:18.605Z,43.80
2019-01-11T04:32:48.715Z,43.40
2019-01-11T04:35:18.858Z,42.60
2019-01-11T04:37:49.064Z,42.87
2019-01-11T04:40:19.704Z,43.33
2019-01-11T04:42:49.497Z,42.67
2019-01-11T04:45:19.725Z,40.63
2019-01-11T04:47:49.527Z,40.60
2019-01-11T04:50:20.363Z,44.53
2019-01-11T04:52:49.977Z,42.53
2019-01-11T04:55:20.317Z,42.93
2019-01-11T04:57:50.417Z,40.67
2019-01-11T05:00:21.454Z,41.70
2019-01-11T05:02:51.395Z,43.80
2019-01-11T05:05:21.207Z,42.57
2019-01-11T05:07:51.204Z,43.90
2019-01-11T05:10:22.056Z,41.80
2019-01-11T05:12:52.069Z,41.77
2019-01-11T05:15:22.195Z,43.90
2019-01-11T05:17:52.195Z,40.13
2019-01-11T05:20:24.661Z,26.53
2019-01-11T05:22:55.196Z,15.73
2019-01-11T05:25:25.216Z,16.43
2019-01-11T05:27:55.217Z,16.23
2019-01-11T05:30:25.338Z,15.27
2019-01-11T05:32:55.255Z,15.17
2019-01-11T05:35:25.475Z,17.63
2019-01-11T05:37:55.796Z,17.67
2019-01-11T05:40:25.836Z,19.77
2019-01-11T05:42:56.356Z,20.30
2019-01-11T05:45:26.460Z,20.20
2019-01-11T05:47:56.796Z,20.50
2019-01-11T05:50:26.903Z,19.00
2019-01-11T05:52:57.256Z,19.60
2019-01-11T05:55:46.216Z,26.13
2019-01-11T05:58:34.641Z,27.93
2019-01-11T06:01:04.775Z,24.00
2019-01-11T06:03:34.796Z,25.50
2019-01-11T06:06:05.222Z,23.23
2019-01-11T06:08:35.857Z,21.40
2019-01-11T06:11:06.150Z,19.53
2019-01-11T06:13:36.505Z,22.13
2019-01-11T06:16:06.805Z,20.80
2019-01-11T06:18:36.836Z,20.97
2019-01-11T06:21:06.757Z,19.87
2019-01-11T06:23:36.751Z,19.17
2019-01-11T06:26:06.776Z,18.87
2019-01-11T06:28:36.674Z,21.23
2019-01-11T06:31:06.917Z,20.23
2019-01-11T06:33:37.073Z,20.33
2019-01-11T06:36:07.037Z,18.43
2019-01-11T06:38:37.896Z,19.60
2019-01-11T06:41:08.009Z,17.10
2019-01-11T06:43:39.434Z,18.10
2019-01-11T06:46:09.761Z,18.00
2019-01-11T06:48:41.213Z,18.00
2019-01-11T06:51:13.074Z,16.03
2019-01-11T06:53:42.996Z,17.13
2019-01-11T06:56:13.935Z,17.67
2019-01-11T06:58:43.755Z,18.90
2019-01-11T07:01:13.896Z,19.03
2019-01-11T07:03:44.277Z,20.87
2019-01-11T07:06:17.983Z,20.10
2019-01-11T07:08:49.740Z,17.43
2019-01-11T07:11:19.761Z,17.30
2019-01-11T07:13:53.896Z,18.37
2019-01-11T07:16:24.914Z,19.93
2019-01-11T07:18:55.232Z,20.30
2019-01-11T07:21:25.455Z,20.23
2019-01-11T07:23:56.070Z,22.40
2019-01-11T07:26:26.216Z,22.27
2019-01-11T07:28:56.349Z,22.77
2019-01-11T07:31:29.821Z,21.93
2019-01-11T07:34:00.454Z,22.17
2019-01-11T07:36:35.496Z,18.33
2019-01-11T07:39:14.416Z,17.90
2019-01-11T07:41:44.856Z,16.37
2019-01-11T07:44:15.796Z,17.07
2019-01-11T07:46:46.206Z,19.00
2019-01-11T07:49:22.931Z,21.63
2019-01-11T07:51:47.996Z,21.90
2019-01-11T07:54:18.400Z,20.13
2019-01-11T07:56:48.339Z,19.77
2019-01-11T07:59:21.614Z,17.53
2019-01-11T08:01:51.656Z,18.47
2019-01-11T08:04:23.397Z,17.47
2019-01-11T08:06:53.807Z,19.13
2019-01-11T08:09:23.859Z,17.47
2019-01-11T08:11:54.257Z,16.20
2019-01-11T08:14:24.796Z,16.60
2019-01-11T08:16:55.956Z,17.10
2019-01-11T08:19:27.496Z,20.07
2019-01-11T08:21:58.519Z,17.27
2019-01-11T08:24:28.858Z,17.83
2019-01-11T08:26:59.486Z,15.57
2019-01-11T08:29:30.015Z,15.03
2019-01-11T08:32:00.760Z,15.57
2019-01-11T08:34:30.671Z,16.07
2019-01-11T08:37:07.840Z,15.07
2019-01-11T08:39:38.674Z,13.50
2019-01-11T08:42:08.900Z,12.63
2019-01-11T08:44:39.022Z,12.30
2019-01-11T08:47:09.330Z,14.30
2019-01-11T08:49:39.142Z,15.53
2019-01-11T08:52:09.362Z,15.00
2019-01-11T08:54:39.687Z,14.03
2019-01-11T08:57:09.600Z,14.57
2019-01-11T08:59:39.310Z,13.43
2019-01-11T09:02:09.225Z,12.40
2019-01-11T09:04:39.244Z,12.40
2019-01-11T09:07:09.359Z,11.80
2019-01-11T09:09:39.069Z,11.40
2019-01-11T09:12:09.393Z,11.30
2019-01-11T09:14:49.442Z,10.97
2019-01-11T09:17:19.667Z,10.70
2019-01-11T09:19:49.682Z,12.07
2019-01-11T09:22:19.707Z,13.20
2019-01-11T09:24:50.225Z,11.20
2019-01-11T09:27:20.449Z,11.83
2019-01-11T09:29:50.463Z,12.57
2019-01-11T09:32:20.586Z,13.60
2019-01-11T09:34:51.110Z,13.53
2019-01-11T09:37:21.334Z,12.00
2019-01-11T09:39:52.268Z,10.17
2019-01-11T09:42:22.183Z,10.93
2019-01-11T09:44:52.715Z,11.43
2019-01-11T09:47:22.836Z,11.00
2019-01-11T09:49:52.775Z,10.07
2019-01-11T09:52:23.177Z,11.27
2019-01-11T09:54:54.319Z,10.67
2019-01-11T09:57:24.846Z,9.80
2019-01-11T09:59:56.187Z,8.97
2019-01-11T10:02:44.654Z,7.33
2019-01-11T10:05:15.067Z,8.67
2019-01-11T10:07:45.501Z,8.43
2019-01-11T10:10:16.029Z,6.83
2019-01-11T10:12:47.370Z,7.23
2019-01-11T10:15:17.694Z,7.50
2019-01-11T10:17:50.066Z,6.43
2019-01-11T10:20:20.490Z,5.83
2019-01-11T10:22:50.408Z,7.10
2019-01-11T10:25:21.653Z,7.63
2019-01-11T10:27:52.176Z,6.47
2019-01-11T10:30:24.351Z,6.47
2019-01-11T10:33:01.943Z,6.20
2019-01-11T10:35:33.606Z,6.40
2019-01-11T10:38:04.330Z,7.53
2019-01-11T10:40:37.326Z,6.40
2019-01-11T10:43:08.457Z,10.43
2019-01-11T10:45:38.784Z,10.33
2019-01-11T10:48:10.745Z,7.80
2019-01-11T10:50:41.582Z,11.03
2019-01-11T10:53:12.926Z,10.40
2019-01-11T10:55:45.420Z,7.90
2019-01-11T10:58:15.219Z,9.83
2019-01-11T11:00:45.550Z,7.50
2019-01-11T11:03:16.597Z,7.77
2019-01-11T11:05:46.702Z,8.37
2019-01-11T11:08:16.816Z,7.27
2019-01-11T11:10:47.445Z,8.43
2019-01-11T11:13:17.667Z,6.70
2019-01-11T11:15:49.430Z,7.97
2019-01-11T11:18:19.748Z,8.00
2019-01-11T11:20:50.390Z,8.00
2019-01-11T11:23:20.804Z,8.60
2019-01-11T11:25:50.728Z,8.20
2019-01-11T11:28:20.632Z,9.97
2019-01-11T11:30:51.094Z,9.47
2019-01-11T11:33:21.383Z,8.30
2019-01-11T11:35:51.706Z,9.30
2019-01-11T11:38:21.622Z,8.00
2019-01-11T11:40:51.850Z,8.80
2019-01-11T11:43:22.072Z,9.53
2019-01-11T11:45:53.518Z,8.97
2019-01-11T11:48:24.046Z,7.40
2019-01-11T11:50:54.612Z,7.00
2019-01-11T11:53:25.278Z,7.53
2019-01-11T11:55:56.337Z,8.33
2019-01-11T11:58:26.668Z,7.07
2019-01-11T12:00:57.712Z,11.27
2019-01-11T12:03:27.749Z,13.93
2019-01-11T12:05:57.637Z,9.57
2019-01-11T12:08:28.169Z,10.20
2019-01-11T12:10:58.691Z,8.13
2019-01-11T12:13:28.740Z,9.47
2019-01-11T12:16:02.925Z,10.50
2019-01-11T12:18:33.146Z,13.03
2019-01-11T12:21:02.857Z,12.27
2019-01-11T12:23:33.286Z,11.63
2019-01-11T12:26:03.202Z,11.87
2019-01-11T12:28:33.857Z,10.20
2019-01-11T12:31:04.454Z,10.93
2019-01-11T12:33:34.580Z,10.10
2019-01-11T12:36:04.803Z,9.50
2019-01-11T12:38:34.736Z,8.93
2019-01-11T12:41:04.933Z,9.30
2019-01-11T12:43:35.068Z,8.90
2019-01-11T12:46:04.972Z,9.10
2019-01-11T12:48:34.874Z,9.00
2019-01-11T12:51:04.898Z,8.10
2019-01-11T12:53:35.121Z,9.00
2019-01-11T12:56:05.441Z,8.33
2019-01-11T12:58:35.259Z,7.47
2019-01-11T13:01:05.888Z,8.27
2019-01-11T13:03:35.809Z,10.83
2019-01-11T13:06:05.719Z,9.57
2019-01-11T13:08:35.524Z,10.40
2019-01-11T13:11:05.650Z,12.00
2019-01-11T13:13:35.762Z,9.73
2019-01-11T13:16:05.681Z,9.23
2019-01-11T13:18:35.591Z,10.23
2019-01-11T13:21:05.821Z,11.13
2019-01-11T13:23:36.033Z,11.53
2019-01-11T13:26:06.077Z,12.60
2019-01-11T13:28:36.479Z,11.50
2019-01-11T13:31:07.320Z,9.53
2019-01-11T13:33:37.122Z,9.60
2019-01-11T13:36:13.492Z,8.77
2019-01-11T13:38:43.717Z,9.50
2019-01-11T13:41:13.420Z,10.23
2019-01-11T13:43:44.259Z,10.93
2019-01-11T13:46:14.476Z,10.33
2019-01-11T13:48:45.413Z,9.33
2019-01-11T13:51:15.635Z,9.73
2019-01-11T13:53:46.267Z,9.43
2019-01-11T13:56:16.390Z,9.53
2019-01-11T13:58:46.820Z,11.80
2019-01-11T14:01:17.648Z,19.07
2019-01-11T14:03:47.869Z,17.03
2019-01-11T14:06:17.782Z,14.97
2019-01-11T14:08:48.236Z,19.33
2019-01-11T14:11:18.125Z,30.30
2019-01-11T14:13:48.757Z,14.07
2019-01-11T14:16:18.671Z,14.07
2019-01-11T14:18:48.584Z,15.33
2019-01-11T14:21:18.403Z,14.47
2019-01-11T14:23:48.870Z,12.27
2019-01-11T14:26:19.476Z,14.33
2019-01-11T14:28:49.673Z,15.83
2019-01-11T14:31:19.688Z,17.57
2019-01-11T14:33:49.816Z,13.63
2019-01-11T14:36:19.826Z,12.90
2019-01-11T14:38:50.048Z,13.93
2019-01-11T14:41:20.684Z,13.70
2019-01-11T14:43:51.826Z,15.00
2019-01-11T14:46:22.074Z,14.40
2019-01-11T14:48:52.367Z,14.73
2019-01-11T14:51:22.386Z,13.93
2019-01-11T14:53:52.399Z,15.57
2019-01-11T14:56:22.106Z,12.67
2019-01-11T14:58:52.534Z,13.17
2019-01-11T15:01:22.655Z,12.17
2019-01-11T15:03:53.799Z,14.77
2019-01-11T15:06:24.655Z,13.80
2019-01-11T15:08:55.496Z,13.47
2019-01-11T15:11:26.933Z,13.33
2019-01-11T15:13:57.343Z,13.30
2019-01-11T15:16:28.717Z,15.33
2019-01-11T15:19:00.449Z,18.00
2019-01-11T15:21:30.896Z,24.77
2019-01-11T15:24:01.299Z,19.90
2019-01-11T15:26:32.442Z,15.07
2019-01-11T15:29:06.678Z,15.83
2019-01-11T15:31:37.615Z,15.67
2019-01-11T15:34:08.026Z,16.43
2019-01-11T15:36:38.677Z,13.77
2019-01-11T15:39:10.074Z,16.20
2019-01-11T15:41:40.675Z,16.23
2019-01-11T15:44:11.481Z,24.57
2019-01-11T15:46:42.404Z,18.70
2019-01-11T15:49:12.835Z,21.10
2019-01-11T15:51:43.807Z,18.13
2019-01-11T15:54:14.509Z,26.70
2019-01-11T15:56:47.495Z,30.70
2019-01-11T15:59:18.430Z,20.57
2019-01-11T16:01:49.788Z,22.30
2019-01-11T16:04:20.405Z,22.33
2019-01-11T16:06:50.856Z,21.93
2019-01-11T16:09:58.745Z,23.60
2019-01-11T16:12:47.693Z,19.17
2019-01-11T16:15:23.752Z,22.70
2019-01-11T16:17:54.793Z,24.53
2019-01-11T16:20:24.705Z,20.63
2019-01-11T16:22:54.415Z,20.17
2019-01-11T16:25:24.533Z,17.57
2019-01-11T16:27:54.654Z,18.37
2019-01-11T16:30:24.464Z,20.87
2019-01-11T16:32:54.424Z,20.87
2019-01-11T16:35:24.608Z,18.77
2019-01-11T16:37:54.823Z,18.93
2019-01-11T16:40:25.458Z,19.20
2019-01-11T16:42:56.416Z,20.20
2019-01-11T16:45:27.242Z,19.77
2019-01-11T16:47:58.883Z,18.27
2019-01-11T16:50:29.612Z,21.07
2019-01-11T16:53:00.449Z,20.53
2019-01-11T16:55:30.775Z,20.40
2019-01-11T16:58:00.996Z,22.30
2019-01-11T17:00:32.243Z,22.70
2019-01-11T17:03:08.707Z,20.50
2019-01-11T17:05:41.087Z,21.27
2019-01-11T17:08:15.300Z,20.40
2019-01-11T17:10:45.217Z,22.57
2019-01-11T17:13:15.224Z,23.03
2019-01-11T17:15:45.040Z,26.10
2019-01-11T17:18:18.328Z,26.63
2019-01-11T17:20:48.861Z,27.40
2019-01-11T17:23:19.795Z,25.83
2019-01-11T17:25:50.845Z,29.60
2019-01-11T17:28:21.775Z,26.30
2019-01-11T17:30:51.605Z,24.00
2019-01-11T17:33:22.223Z,22.80
2019-01-11T17:35:52.845Z,24.93
2019-01-11T17:38:24.401Z,25.77
2019-01-11T17:40:55.644Z,27.33
2019-01-11T17:43:26.175Z,26.67
2019-01-11T17:45:56.814Z,25.77
2019-01-11T17:48:27.438Z,26.60
2019-01-11T17:50:58.496Z,25.10
2019-01-11T17:53:29.624Z,25.70
2019-01-11T17:55:59.947Z,27.53
2019-01-11T17:58:31.495Z,26.27
2019-01-11T18:01:02.738Z,28.50
2019-01-11T18:03:33.785Z,25.20
2019-01-11T18:06:06.256Z,26.33
2019-01-11T18:08:38.625Z,30.83
2019-01-11T18:11:10.072Z,26.33
2019-01-11T18:13:41.940Z,25.17
2019-01-11T18:16:16.070Z,27.47
2019-01-11T18:18:46.174Z,24.60
2019-01-11T18:21:20.182Z,28.20
2019-01-11T18:27:08.239Z,28.33
2019-01-11T18:29:40.076Z,32.13
2019-01-11T18:32:11.676Z,38.37
2019-01-11T18:34:43.016Z,45.38
2019-01-11T18:37:14.257Z,33.97
2019-01-11T18:39:48.456Z,33.53
2019-01-11T18:42:21.244Z,36.30
2019-01-11T18:44:53.070Z,33.47
2019-01-11T18:47:26.906Z,31.47
2019-01-11T18:49:57.748Z,32.70
2019-01-11T18:52:28.680Z,33.90
2019-01-11T18:55:01.094Z,32.50
2019-01-11T18:57:33.069Z,32.70
2019-01-11T19:00:29.156Z,37.07
2019-01-11T19:03:01.817Z,39.13
2019-01-11T19:05:44.649Z,39.90
2019-01-11T19:08:20.897Z,39.03
2019-01-11T19:10:55.635Z,36.63
2019-01-11T19:13:38.653Z,37.60
2019-01-11T19:16:10.703Z,32.83
2019-01-11T19:18:46.359Z,33.43
2019-01-11T19:21:20.096Z,36.23
2019-01-11T19:23:59.292Z,33.73
2019-01-11T19:26:30.855Z,34.07
2019-01-11T19:29:01.595Z,32.27
2019-01-11T19:31:35.917Z,31.80
2019-01-11T19:34:07.242Z,33.20
2019-01-11T19:36:38.080Z,38.00
2019-01-11T19:39:09.856Z,33.93
2019-01-11T19:41:43.338Z,33.87
2019-01-11T19:44:19.074Z,31.90
2019-01-11T19:46:50.533Z,31.33
2019-01-11T19:49:22.070Z,28.63
2019-01-11T19:51:56.738Z,31.10
2019-01-11T19:54:28.700Z,32.77
2019-01-11T19:56:59.016Z,42.20
2019-01-11T19:59:33.958Z,33.00
2019-01-11T20:02:08.796Z,29.93
2019-01-11T20:04:39.394Z,28.60
2019-01-11T20:07:10.650Z,31.03
2019-01-11T20:09:43.518Z,24.70
2019-01-11T20:12:13.859Z,24.23
2019-01-11T20:14:49.074Z,25.87
2019-01-11T20:17:24.640Z,29.73
2019-01-11T20:19:56.485Z,32.43
2019-01-11T20:22:27.251Z,30.33
2019-01-11T20:25:03.911Z,28.70
2019-01-11T20:27:39.048Z,30.07
2019-01-11T20:30:11.013Z,28.60
2019-01-11T20:32:42.646Z,28.90
2019-01-11T20:35:16.961Z,27.47
2019-01-11T20:37:50.584Z,25.40
2019-01-11T20:40:27.073Z,23.17
2019-01-11T20:42:57.256Z,24.93
2019-01-11T20:45:27.985Z,23.63
2019-01-11T20:48:08.783Z,21.70
2019-01-11T20:50:42.353Z,22.27
2019-01-11T20:53:16.780Z,22.47
2019-01-11T20:55:49.756Z,18.67
2019-01-11T20:58:31.553Z,19.20
2019-01-11T21:01:02.186Z,17.70
2019-01-11T21:03:37.626Z,16.67
2019-01-11T21:06:10.610Z,18.77
2019-01-11T21:08:45.341Z,16.53
2019-01-11T21:11:17.824Z,16.43
2019-01-11T21:13:50.316Z,15.50
2019-01-11T21:16:25.757Z,15.47
2019-01-11T21:18:57.390Z,15.60
2019-01-11T21:21:30.787Z,15.40
2019-01-11T21:24:03.076Z,13.00
2019-01-11T21:26:34.737Z,16.33
2019-01-11T21:29:06.364Z,15.10
2019-01-11T21:31:37.302Z,15.83
2019-01-11T21:34:13.096Z,13.90
2019-01-11T21:36:48.611Z,14.70
2019-01-11T21:39:19.446Z,14.13
2019-01-11T21:41:50.688Z,12.07
2019-01-11T21:44:21.839Z,15.23
2019-01-11T21:46:56.650Z,13.77
2019-01-11T21:49:28.311Z,12.97
2019-01-11T21:51:58.425Z,13.17
2019-01-11T21:54:28.771Z,12.40
2019-01-11T21:56:58.885Z,13.33
2019-01-11T21:59:29.403Z,14.67
2019-01-11T22:01:59.820Z,13.43
2019-01-11T22:04:30.099Z,11.53
2019-01-11T22:07:06.918Z,15.40
2019-01-11T22:09:37.037Z,15.53
2019-01-11T22:12:07.359Z,17.37
2019-01-11T22:14:38.298Z,15.63
2019-01-11T22:17:08.416Z,18.00
2019-01-11T22:19:38.230Z,16.57
2019-01-11T22:22:08.247Z,19.27
2019-01-11T22:24:38.976Z,16.27
2019-01-11T22:27:08.893Z,17.73
2019-01-11T22:29:39.420Z,16.00
2019-01-11T22:32:09.434Z,18.90
2019-01-11T22:34:39.349Z,17.57
2019-01-11T22:37:09.675Z,16.83
2019-01-11T22:39:40.104Z,17.67
2019-01-11T22:42:10.328Z,18.57
2019-01-11T22:44:40.750Z,16.63
2019-01-11T22:47:10.868Z,18.47
2019-01-11T22:49:41.292Z,19.37
2019-01-11T22:52:11.963Z,22.07
2019-01-11T22:54:42.043Z,19.70
2019-01-11T22:57:13.567Z,18.73
2019-01-11T22:59:43.637Z,20.53
2019-01-11T23:02:20.795Z,17.40
2019-01-11T23:04:52.756Z,20.20
2019-01-11T23:07:26.896Z,19.83
2019-01-11T23:10:15.755Z,19.00
2019-01-11T23:12:49.756Z,19.30
2019-01-11T23:15:21.816Z,19.77
2019-01-11T23:17:54.565Z,18.73
2019-01-11T23:20:24.937Z,19.10
2019-01-11T23:22:56.476Z,16.80
2019-01-11T23:25:26.798Z,18.07
2019-01-11T23:27:57.069Z,18.27
2019-01-11T23:30:27.237Z,18.00
2019-01-11T23:32:57.364Z,17.73
2019-01-11T23:35:27.460Z,18.60
2019-01-11T23:37:57.696Z,19.27
2019-01-11T23:40:27.916Z,17.47
2019-01-11T23:42:58.072Z,17.37
2019-01-11T23:45:28.040Z,17.53
2019-01-11T23:47:58.465Z,16.57
2019-01-11T23:50:28.380Z,18.57
2019-01-11T23:52:58.195Z,19.93
2019-01-11T23:55:28.522Z,19.00
2019-01-11T23:57:58.640Z,17.90
